createdAt,value
2018-11-12T00:01:54.905Z,8.00
2018-11-12T00:04:27.798Z,8.83
2018-11-12T00:07:00.550Z,7.90
2018-11-12T00:09:33.071Z,7.50
2018-11-12T00:12:04.949Z,8.37
2018-11-12T00:14:36.813Z,8.93
2018-11-12T00:17:08.763Z,7.67
2018-11-12T00:19:40.633Z,9.97
2018-11-12T00:22:12.632Z,8.50
2018-11-12T00:24:44.337Z,10.70
2018-11-12T00:27:16.166Z,9.30
2018-11-12T00:29:47.977Z,9.70
2018-11-12T00:32:20.061Z,9.27
2018-11-12T00:34:51.851Z,11.00
2018-11-12T00:37:23.697Z,12.47
2018-11-12T00:39:55.679Z,8.03
2018-11-12T00:42:27.633Z,10.03
2018-11-12T00:44:59.449Z,10.30
2018-11-12T00:47:31.265Z,10.10
2018-11-12T00:50:03.345Z,9.67
2018-11-12T00:52:35.241Z,9.87
2018-11-12T00:55:07.813Z,9.67
2018-11-12T00:57:40.018Z,10.43
2018-11-12T01:00:14.541Z,11.13
2018-11-12T01:02:48.528Z,9.47
2018-11-12T01:05:20.825Z,10.00
2018-11-12T01:07:52.754Z,10.57
2018-11-12T01:10:24.729Z,11.77
2018-11-12T01:12:56.683Z,11.50
2018-11-12T01:15:28.805Z,11.03
2018-11-12T01:18:00.593Z,11.27
2018-11-12T01:20:32.647Z,12.47
2018-11-12T01:23:04.425Z,13.67
2018-11-12T01:25:36.322Z,10.60
2018-11-12T01:28:08.281Z,13.33
2018-11-12T01:30:40.181Z,10.10
2018-11-12T01:33:12.172Z,12.60
2018-11-12T01:35:44.138Z,12.03
2018-11-12T01:38:16.109Z,13.73
2018-11-12T01:40:48.052Z,11.60
2018-11-12T01:43:20.142Z,12.77
2018-11-12T01:45:52.070Z,16.90
2018-11-12T01:48:23.888Z,14.93
2018-11-12T01:50:55.850Z,12.60
2018-11-12T01:53:27.862Z,10.57
2018-11-12T01:55:59.971Z,11.17
2018-11-12T01:58:31.780Z,14.20
2018-11-12T02:01:03.761Z,12.63
2018-11-12T02:03:35.710Z,12.43
2018-11-12T02:06:07.790Z,14.63
2018-11-12T02:08:39.772Z,12.57
2018-11-12T02:11:12.069Z,11.47
2018-11-12T02:13:44.248Z,11.70
2018-11-12T02:16:16.355Z,11.13
2018-11-12T02:18:48.419Z,12.70
2018-11-12T02:21:20.376Z,10.73
2018-11-12T02:23:52.547Z,12.67
2018-11-12T02:26:24.464Z,12.40
2018-11-12T02:28:56.202Z,12.83
2018-11-12T02:31:28.444Z,12.17
2018-11-12T02:34:00.297Z,14.90
2018-11-12T02:36:32.349Z,12.53
2018-11-12T02:39:05.973Z,12.10
2018-11-12T02:41:37.942Z,11.07
2018-11-12T02:44:10.200Z,12.30
2018-11-12T02:46:42.913Z,14.00
2018-11-12T02:49:15.584Z,11.23
2018-11-12T02:51:47.393Z,12.00
2018-11-12T02:54:19.372Z,15.77
2018-11-12T02:56:51.260Z,15.43
2018-11-12T02:59:23.365Z,11.83
2018-11-12T03:02:15.702Z,14.50
2018-11-12T03:05:00.109Z,12.30
2018-11-12T03:07:37.447Z,12.97
2018-11-12T03:10:12.042Z,11.63
2018-11-12T03:12:43.918Z,12.93
2018-11-12T03:15:17.023Z,13.07
2018-11-12T03:17:49.886Z,10.30
2018-11-12T03:20:23.794Z,11.00
2018-11-12T03:22:55.828Z,9.70
2018-11-12T03:25:38.519Z,11.20
2018-11-12T03:28:10.338Z,15.57
2018-11-12T03:30:42.243Z,12.50
2018-11-12T03:33:20.671Z,12.70
2018-11-12T03:35:54.384Z,10.60
2018-11-12T03:38:26.201Z,10.13
2018-11-12T03:40:58.973Z,10.87
2018-11-12T03:43:31.049Z,11.33
2018-11-12T03:46:03.017Z,10.60
2018-11-12T03:48:35.110Z,10.50
2018-11-12T03:51:07.088Z,12.83
2018-11-12T03:53:39.312Z,10.97
2018-11-12T03:56:11.932Z,10.77
2018-11-12T03:58:44.068Z,9.40
2018-11-12T04:01:15.845Z,10.00
2018-11-12T04:03:47.599Z,11.60
2018-11-12T04:06:19.327Z,11.20
2018-11-12T04:08:51.085Z,12.37
2018-11-12T04:11:23.055Z,9.43
2018-11-12T04:13:54.977Z,12.10
2018-11-12T04:16:27.729Z,16.13
2018-11-12T04:18:59.545Z,12.20
2018-11-12T04:21:31.369Z,11.87
2018-11-12T04:24:03.296Z,13.30
2018-11-12T04:26:35.188Z,11.37
2018-11-12T04:29:07.215Z,10.20
2018-11-12T04:31:39.971Z,11.20
2018-11-12T04:34:11.781Z,12.33
2018-11-12T04:36:43.697Z,13.10
2018-11-12T04:39:15.450Z,12.77
2018-11-12T04:41:47.501Z,11.97
2018-11-12T04:44:19.433Z,10.97
2018-11-12T04:46:51.284Z,12.37
2018-11-12T04:49:23.420Z,13.60
2018-11-12T04:51:55.520Z,13.10
2018-11-12T04:54:28.386Z,12.37
2018-11-12T04:57:01.143Z,12.97
2018-11-12T04:59:33.881Z,11.60
2018-11-12T05:02:06.467Z,12.30
2018-11-12T05:04:38.370Z,17.43
2018-11-12T05:07:10.589Z,13.40
2018-11-12T05:09:42.773Z,13.20
2018-11-12T05:12:14.933Z,14.40
2018-11-12T05:14:46.965Z,14.20
2018-11-12T05:17:19.014Z,16.30
2018-11-12T05:19:51.070Z,18.77
2018-11-12T05:22:23.014Z,21.70
2018-11-12T05:24:54.840Z,22.50
2018-11-12T05:27:26.808Z,32.87
2018-11-12T05:29:58.834Z,35.47
2018-11-12T05:32:30.842Z,29.47
2018-11-12T05:35:03.069Z,28.07
2018-11-12T05:37:35.559Z,30.03
2018-11-12T05:40:09.297Z,30.80
2018-11-12T05:42:41.358Z,31.97
2018-11-12T05:45:14.148Z,27.70
2018-11-12T05:47:46.011Z,30.87
2018-11-12T05:50:21.202Z,32.13
2018-11-12T05:52:55.456Z,33.47
2018-11-12T05:55:29.562Z,31.47
2018-11-12T05:58:02.661Z,30.17
2018-11-12T06:00:36.468Z,32.93
2018-11-12T06:03:08.581Z,36.73
2018-11-12T06:05:40.479Z,33.33
2018-11-12T06:08:12.399Z,31.87
2018-11-12T06:10:44.586Z,35.80
2018-11-12T06:13:17.381Z,33.77
2018-11-12T06:15:50.136Z,32.20
2018-11-12T06:18:21.981Z,33.63
2018-11-12T06:20:53.938Z,32.07
2018-11-12T06:23:26.659Z,34.20
2018-11-12T06:25:59.427Z,33.87
2018-11-12T06:28:32.216Z,35.20
2018-11-12T06:31:04.471Z,36.07
2018-11-12T06:33:36.469Z,31.17
2018-11-12T06:36:08.652Z,31.83
2018-11-12T06:38:40.666Z,34.10
2018-11-12T06:41:12.744Z,27.60
2018-11-12T06:43:44.691Z,31.70
2018-11-12T06:46:16.741Z,34.03
2018-11-12T06:48:48.818Z,30.70
2018-11-12T06:51:20.810Z,31.30
2018-11-12T06:53:52.767Z,38.33
2018-11-12T06:56:24.918Z,34.00
2018-11-12T06:58:56.960Z,28.13
2018-11-12T07:01:29.781Z,28.20
2018-11-12T07:04:01.799Z,30.17
2018-11-12T07:06:33.947Z,32.20
2018-11-12T07:09:07.975Z,28.33
2018-11-12T07:11:40.026Z,32.60
2018-11-12T07:14:11.865Z,31.87
2018-11-12T07:16:43.759Z,31.93
2018-11-12T07:19:16.121Z,29.47
2018-11-12T07:21:48.843Z,27.37
2018-11-12T07:24:21.425Z,29.57
2018-11-12T07:26:56.469Z,30.90
2018-11-12T07:29:28.503Z,29.67
2018-11-12T07:32:00.494Z,32.07
2018-11-12T07:34:32.237Z,27.67
2018-11-12T07:37:08.103Z,27.07
2018-11-12T07:39:45.253Z,27.20
2018-11-12T07:42:17.876Z,29.73
2018-11-12T07:44:53.150Z,26.40
2018-11-12T07:47:25.773Z,28.30
2018-11-12T07:49:58.489Z,29.67
2018-11-12T07:52:30.397Z,28.80
2018-11-12T07:55:02.124Z,27.70
2018-11-12T07:57:33.946Z,27.80
2018-11-12T08:00:06.768Z,28.13
2018-11-12T08:02:38.610Z,29.87
2018-11-12T08:05:11.069Z,29.70
2018-11-12T08:07:43.640Z,26.93
2018-11-12T08:10:17.777Z,30.30
2018-11-12T08:12:49.774Z,30.67
2018-11-12T08:15:22.020Z,32.37
2018-11-12T08:17:54.006Z,29.53
2018-11-12T08:20:27.281Z,28.43
2018-11-12T08:23:00.006Z,31.03
2018-11-12T08:25:32.371Z,30.47
2018-11-12T08:28:05.158Z,30.87
2018-11-12T08:30:37.224Z,29.73
2018-11-12T08:33:09.084Z,32.70
2018-11-12T08:35:41.144Z,35.53
2018-11-12T08:38:13.196Z,35.77
2018-11-12T08:40:45.735Z,35.47
2018-11-12T08:43:18.462Z,28.33
2018-11-12T08:45:50.276Z,35.10
2018-11-12T08:48:22.094Z,43.43
2018-11-12T08:50:53.957Z,35.13
2018-11-12T08:53:25.930Z,41.40
2018-11-12T08:55:57.898Z,34.07
2018-11-12T08:58:30.853Z,33.30
2018-11-12T09:01:02.814Z,40.30
2018-11-12T09:03:35.112Z,37.30
2018-11-12T09:06:07.402Z,39.03
2018-11-12T09:08:39.568Z,40.60
2018-11-12T09:11:11.603Z,38.03
2018-11-12T09:13:44.358Z,42.27
2018-11-12T09:16:16.240Z,41.33
2018-11-12T09:18:48.249Z,40.93
2018-11-12T09:21:20.010Z,44.20
2018-11-12T09:23:51.903Z,41.20
2018-11-12T09:26:23.892Z,46.83
2018-11-12T09:28:56.048Z,40.50
2018-11-12T09:31:29.014Z,44.50
2018-11-12T09:34:00.833Z,49.63
2018-11-12T09:36:32.852Z,49.63
2018-11-12T09:39:05.867Z,42.30
2018-11-12T09:41:37.961Z,44.37
2018-11-12T09:44:10.148Z,41.10
2018-11-12T09:46:42.913Z,45.90
2018-11-12T09:49:15.902Z,44.50
2018-11-12T09:51:47.902Z,45.00
2018-11-12T09:54:20.162Z,44.57
2018-11-12T09:56:52.212Z,41.13
2018-11-12T09:59:24.019Z,45.47
2018-11-12T10:01:56.856Z,41.33
2018-11-12T10:04:29.934Z,45.40
2018-11-12T10:07:02.326Z,39.30
2018-11-12T10:09:34.500Z,44.77
2018-11-12T10:12:07.380Z,42.37
2018-11-12T10:14:38.780Z,42.23
2018-11-12T10:17:13.165Z,42.43
2018-11-12T10:19:41.346Z,37.63
2018-11-12T10:22:13.364Z,42.40
2018-11-12T10:24:47.055Z,43.33
2018-11-12T10:27:20.003Z,38.80
2018-11-12T10:29:52.260Z,48.43
2018-11-12T10:32:24.334Z,45.50
2018-11-12T10:34:56.602Z,37.00
2018-11-12T10:37:28.684Z,41.80
2018-11-12T10:40:00.737Z,34.77
2018-11-12T10:42:32.969Z,38.60
2018-11-12T10:45:05.733Z,38.60
2018-11-12T10:47:37.950Z,38.10
2018-11-12T10:50:11.859Z,44.30
2018-11-12T10:52:44.237Z,39.30
2018-11-12T10:55:18.793Z,36.67
2018-11-12T10:57:51.199Z,40.70
2018-11-12T11:00:29.193Z,32.93
2018-11-12T11:03:06.825Z,39.50
2018-11-12T11:05:40.068Z,32.57
2018-11-12T11:08:12.367Z,34.77
2018-11-12T11:10:44.295Z,38.80
2018-11-12T11:13:16.050Z,36.13
2018-11-12T11:15:47.951Z,37.77
2018-11-12T11:18:20.023Z,32.67
2018-11-12T11:20:52.723Z,34.83
2018-11-12T11:23:25.430Z,37.10
2018-11-12T11:25:57.376Z,38.70
2018-11-12T11:28:29.418Z,33.50
2018-11-12T11:31:02.398Z,34.83
2018-11-12T11:33:34.755Z,36.13
2018-11-12T11:36:06.965Z,30.73
2018-11-12T11:38:38.959Z,32.80
2018-11-12T11:41:11.248Z,29.67
2018-11-12T11:43:43.718Z,32.70
2018-11-12T11:46:15.885Z,33.53
2018-11-12T11:48:52.363Z,35.20
2018-11-12T11:51:33.035Z,26.30
2018-11-12T11:54:05.149Z,29.40
2018-11-12T11:56:38.615Z,32.33
2018-11-12T11:59:10.724Z,30.17
2018-11-12T12:01:43.780Z,27.27
2018-11-12T12:04:16.197Z,27.67
2018-11-12T12:06:48.185Z,26.93
2018-11-12T12:09:20.220Z,27.50
2018-11-12T12:11:53.052Z,22.67
2018-11-12T12:14:25.625Z,24.07
2018-11-12T12:16:57.935Z,26.93
2018-11-12T12:19:30.689Z,23.17
2018-11-12T12:22:02.917Z,28.80
2018-11-12T12:24:35.739Z,27.17
2018-11-12T12:27:08.011Z,25.37
2018-11-12T12:29:40.049Z,25.00
2018-11-12T12:32:12.194Z,23.63
2018-11-12T12:34:45.747Z,26.27
2018-11-12T12:37:19.020Z,27.03
2018-11-12T12:39:52.106Z,25.03
2018-11-12T12:42:25.203Z,25.63
2018-11-12T12:44:58.655Z,20.20
2018-11-12T12:47:32.195Z,25.63
2018-11-12T12:50:05.780Z,30.00
2018-11-12T12:52:39.028Z,22.77
2018-11-12T12:55:13.330Z,22.37
2018-11-12T12:57:47.620Z,25.87
2018-11-12T13:00:22.655Z,21.70
2018-11-12T13:02:56.048Z,19.67
2018-11-12T13:05:28.956Z,20.70
2018-11-12T13:08:02.023Z,22.83
2018-11-12T13:10:36.219Z,18.93
2018-11-12T13:13:09.267Z,25.67
2018-11-12T13:15:42.519Z,25.27
2018-11-12T13:18:15.799Z,21.50
2018-11-12T13:20:49.229Z,23.00
2018-11-12T13:23:22.592Z,21.00
2018-11-12T13:25:56.295Z,22.57
2018-11-12T13:28:29.279Z,22.27
2018-11-12T13:31:02.797Z,21.43
2018-11-12T13:33:36.477Z,21.37
2018-11-12T13:36:10.096Z,21.90
2018-11-12T13:38:44.209Z,22.77
2018-11-12T13:41:17.673Z,22.67
2018-11-12T13:43:51.052Z,19.00
2018-11-12T13:46:28.846Z,21.50
2018-11-12T13:49:02.624Z,20.97
2018-11-12T13:51:36.660Z,19.90
2018-11-12T13:54:10.522Z,23.50
2018-11-12T13:56:43.623Z,22.70
2018-11-12T13:59:17.316Z,19.00
2018-11-12T14:01:51.115Z,21.23
2018-11-12T14:04:24.198Z,18.20
2018-11-12T14:06:57.619Z,21.13
2018-11-12T14:09:31.002Z,17.60
2018-11-12T14:12:04.191Z,17.63
2018-11-12T14:14:38.100Z,22.40
2018-11-12T14:17:11.483Z,18.37
2018-11-12T14:19:45.813Z,20.50
2018-11-12T14:22:19.416Z,22.17
2018-11-12T14:24:52.990Z,18.83
2018-11-12T14:27:26.466Z,16.73
2018-11-12T14:29:59.491Z,17.00
2018-11-12T14:32:33.772Z,17.70
2018-11-12T14:35:06.233Z,15.53
2018-11-12T14:37:38.650Z,15.13
2018-11-12T14:40:12.123Z,14.90
2018-11-12T14:42:44.480Z,14.80
2018-11-12T14:45:17.988Z,16.70
2018-11-12T14:47:50.675Z,16.60
2018-11-12T14:50:22.758Z,15.67
2018-11-12T14:52:55.558Z,12.93
2018-11-12T14:55:27.766Z,16.90
2018-11-12T14:58:00.100Z,16.07
2018-11-12T15:00:32.435Z,14.90
2018-11-12T15:03:04.688Z,14.90
2018-11-12T15:05:36.856Z,13.03
2018-11-12T15:08:09.388Z,13.37
2018-11-12T15:10:41.578Z,15.67
2018-11-12T15:13:13.744Z,17.53
2018-11-12T15:15:45.740Z,15.90
2018-11-12T15:18:17.787Z,15.70
2018-11-12T15:20:50.096Z,11.93
2018-11-12T15:23:22.114Z,13.63
2018-11-12T15:25:54.290Z,14.77
2018-11-12T15:28:26.399Z,15.60
2018-11-12T15:30:58.434Z,15.20
2018-11-12T15:33:30.638Z,12.30
2018-11-12T15:36:02.602Z,17.03
2018-11-12T15:38:34.763Z,13.07
2018-11-12T15:41:07.086Z,12.30
2018-11-12T15:43:39.183Z,12.13
2018-11-12T15:46:11.231Z,16.20
2018-11-12T15:48:43.353Z,15.70
2018-11-12T15:51:15.433Z,13.13
2018-11-12T15:53:47.705Z,13.80
2018-11-12T15:56:19.874Z,15.37
2018-11-12T15:58:52.137Z,10.03
2018-11-12T16:01:24.078Z,14.53
2018-11-12T16:03:56.111Z,17.20
2018-11-12T16:06:28.504Z,12.40
2018-11-12T16:09:00.743Z,11.43
2018-11-12T16:11:32.880Z,13.20
2018-11-12T16:14:05.012Z,11.87
2018-11-12T16:16:37.580Z,11.20
2018-11-12T16:19:10.622Z,12.70
2018-11-12T16:21:44.088Z,10.10
2018-11-12T16:24:15.958Z,10.40
2018-11-12T16:26:49.281Z,10.07
2018-11-12T16:29:21.717Z,8.33
2018-11-12T16:31:53.883Z,9.43
2018-11-12T16:34:27.711Z,8.20
2018-11-12T16:36:59.832Z,8.17
2018-11-12T16:39:32.235Z,6.93
2018-11-12T16:42:04.210Z,6.80
2018-11-12T16:44:36.169Z,6.03
2018-11-12T16:47:08.326Z,7.00
2018-11-12T16:49:40.055Z,5.80
2018-11-12T16:52:12.329Z,4.90
2018-11-12T16:54:45.258Z,4.57
2018-11-12T16:57:17.255Z,4.33
2018-11-12T16:59:49.359Z,4.70
2018-11-12T17:02:22.112Z,4.30
2018-11-12T17:04:54.371Z,4.73
2018-11-12T17:07:26.517Z,4.87
2018-11-12T17:09:58.546Z,4.53
2018-11-12T17:12:30.602Z,3.93
2018-11-12T17:15:02.497Z,4.20
2018-11-12T17:17:34.592Z,4.23
2018-11-12T17:20:07.198Z,4.40
2018-11-12T17:22:39.647Z,5.17
2018-11-12T17:25:13.043Z,4.87
2018-11-12T17:27:45.314Z,5.30
2018-11-12T17:30:18.941Z,5.13
2018-11-12T17:32:51.406Z,5.53
2018-11-12T17:35:23.820Z,6.10
2018-11-12T17:37:55.735Z,6.97
2018-11-12T17:40:27.944Z,6.83
2018-11-12T17:42:59.865Z,6.60
2018-11-12T17:45:33.223Z,5.63
2018-11-12T17:48:05.016Z,6.40
2018-11-12T17:50:36.867Z,5.90
2018-11-12T17:53:09.015Z,6.00
2018-11-12T17:55:41.040Z,6.27
2018-11-12T17:58:13.630Z,5.70
2018-11-12T18:00:46.400Z,6.50
2018-11-12T18:03:18.486Z,5.30
2018-11-12T18:05:50.620Z,6.53
2018-11-12T18:08:22.817Z,7.00
2018-11-12T18:10:54.789Z,6.13
2018-11-12T18:13:27.266Z,7.43
2018-11-12T18:15:59.645Z,7.80
2018-11-12T18:18:32.248Z,8.27
2018-11-12T18:21:04.530Z,6.97
2018-11-12T18:23:36.445Z,7.73
2018-11-12T18:26:09.563Z,7.47
2018-11-12T18:28:42.697Z,7.17
2018-11-12T18:31:15.193Z,9.33
2018-11-12T18:33:47.177Z,8.27
2018-11-12T18:36:19.159Z,8.27
2018-11-12T18:38:51.241Z,8.43
2018-11-12T18:41:23.434Z,8.60
2018-11-12T18:43:55.617Z,10.23
2018-11-12T18:46:27.671Z,9.93
2018-11-12T18:48:59.920Z,10.97
2018-11-12T18:51:32.402Z,9.07
2018-11-12T18:54:04.378Z,12.43
2018-11-12T18:56:36.356Z,13.00
2018-11-12T19:02:08.048Z,13.17
2018-11-12T19:04:40.592Z,12.50
2018-11-12T19:07:13.298Z,10.60
2018-11-12T19:09:46.150Z,13.77
2018-11-12T19:12:18.356Z,20.93
2018-11-12T19:14:52.873Z,23.53
2018-11-12T19:17:25.966Z,20.87
2018-11-12T19:19:58.513Z,16.10
2018-11-12T19:22:30.545Z,21.37
2018-11-12T19:25:04.367Z,15.50
2018-11-12T19:27:37.161Z,22.73
2018-11-12T19:30:18.475Z,16.13
2018-11-12T19:32:51.583Z,15.10
2018-11-12T19:35:25.129Z,19.87
2018-11-12T19:37:57.398Z,18.40
2018-11-12T19:40:31.402Z,22.03
2018-11-12T19:43:03.787Z,21.07
2018-11-12T19:45:36.660Z,18.37
2018-11-12T19:48:09.388Z,22.50
2018-11-12T19:50:41.541Z,19.30
2018-11-12T19:53:13.885Z,22.17
2018-11-12T19:55:46.022Z,22.77
2018-11-12T19:58:18.865Z,20.37
2018-11-12T20:00:51.851Z,20.80
2018-11-12T20:03:24.044Z,20.80
2018-11-12T20:05:56.213Z,20.17
2018-11-12T20:08:30.695Z,18.67
2018-11-12T20:11:02.839Z,19.83
2018-11-12T20:13:35.963Z,20.50
2018-11-12T20:16:09.345Z,19.23
2018-11-12T20:18:41.607Z,21.70
2018-11-12T20:21:14.098Z,20.70
2018-11-12T20:23:46.473Z,21.10
2018-11-12T20:26:18.747Z,20.70
2018-11-12T20:28:50.834Z,23.67
2018-11-12T20:31:23.004Z,18.37
2018-11-12T20:33:54.876Z,18.93
2018-11-12T20:36:28.180Z,21.70
2018-11-12T20:39:01.155Z,18.87
2018-11-12T20:41:33.680Z,19.70
2018-11-12T20:44:07.609Z,22.03
2018-11-12T20:46:39.655Z,24.77
2018-11-12T20:49:11.797Z,21.57
2018-11-12T20:51:43.962Z,21.00
2018-11-12T20:54:16.745Z,23.87
2018-11-12T20:56:49.493Z,21.20
2018-11-12T20:59:23.202Z,19.43
2018-11-12T21:01:55.359Z,20.27
2018-11-12T21:04:27.699Z,23.03
2018-11-12T21:06:59.892Z,16.43
2018-11-12T21:09:32.090Z,17.03
2018-11-12T21:12:05.484Z,22.70
2018-11-12T21:14:38.034Z,18.40
2018-11-12T21:17:10.908Z,18.90
2018-11-12T21:19:43.740Z,18.10
2018-11-12T21:22:17.634Z,19.10
2018-11-12T21:24:49.736Z,18.60
2018-11-12T21:27:22.044Z,18.33
2018-11-12T21:29:54.294Z,19.57
2018-11-12T21:32:26.411Z,20.17
2018-11-12T21:34:58.381Z,18.10
2018-11-12T21:37:30.457Z,17.73
2018-11-12T21:40:02.620Z,25.23
2018-11-12T21:42:34.762Z,15.53
2018-11-12T21:45:07.402Z,19.27
2018-11-12T21:47:40.123Z,17.97
2018-11-12T21:50:14.404Z,17.23
2018-11-12T21:52:46.585Z,20.40
2018-11-12T21:55:18.717Z,16.43
2018-11-12T21:57:51.609Z,19.87
2018-11-12T22:00:25.839Z,15.60
2018-11-12T22:03:00.164Z,17.73
2018-11-12T22:05:33.019Z,17.37
2018-11-12T22:08:06.156Z,14.80
2018-11-12T22:10:38.232Z,19.00
2018-11-12T22:13:10.618Z,17.30
2018-11-12T22:15:43.431Z,15.40
2018-11-12T22:18:15.700Z,15.60
2018-11-12T22:20:47.942Z,20.73
2018-11-12T22:23:20.147Z,13.20
2018-11-12T22:25:52.108Z,15.87
2018-11-12T22:28:24.204Z,16.73
2018-11-12T22:30:56.242Z,15.83
2018-11-12T22:33:28.188Z,20.03
2018-11-12T22:36:00.192Z,16.20
2018-11-12T22:38:32.167Z,14.13
2018-11-12T22:41:04.364Z,16.60
2018-11-12T22:43:36.642Z,17.20
2018-11-12T22:46:08.618Z,15.70
2018-11-12T22:48:40.759Z,15.80
2018-11-12T22:51:12.875Z,13.97
2018-11-12T22:53:45.071Z,21.10
2018-11-12T22:56:17.267Z,17.70
2018-11-12T22:58:49.404Z,19.67
2018-11-12T23:01:21.684Z,21.13
2018-11-12T23:03:53.767Z,20.43
2018-11-12T23:06:25.925Z,15.60
2018-11-12T23:08:58.016Z,15.40
2018-11-12T23:11:30.285Z,15.67
2018-11-12T23:14:02.304Z,18.60
2018-11-12T23:16:34.871Z,15.37
2018-11-12T23:19:06.982Z,15.80
2018-11-12T23:21:39.282Z,16.90
2018-11-12T23:24:11.367Z,15.63
2018-11-12T23:26:43.312Z,15.97
2018-11-12T23:29:15.201Z,16.17
2018-11-12T23:31:47.262Z,16.63
2018-11-12T23:34:20.491Z,15.03
2018-11-12T23:36:53.350Z,17.33
2018-11-12T23:39:26.119Z,18.63
2018-11-12T23:41:58.800Z,15.80
2018-11-12T23:44:30.964Z,14.37
2018-11-12T23:47:02.919Z,18.03
2018-11-12T23:49:34.778Z,16.27
2018-11-12T23:52:06.856Z,16.43
2018-11-12T23:54:38.817Z,15.03
2018-11-12T23:57:10.769Z,21.83
2018-11-12T23:59:42.829Z,18.23
